createdAt,value
2019-03-05T00:00:30.694Z,100137.78
2019-03-05T00:05:35.790Z,100126.35
2019-03-05T00:10:37.937Z,100124.89
2019-03-05T00:15:42.616Z,100126.20
2019-03-05T00:20:47.576Z,100120.31
2019-03-05T00:25:54.604Z,100122.73
2019-03-05T00:31:23.450Z,100112.98
2019-03-05T00:37:12.357Z,100116.05
2019-03-05T00:42:55.286Z,100106.77
2019-03-05T00:48:45.876Z,100115.06
2019-03-05T00:54:40.279Z,100119.11
2019-03-05T01:00:12.050Z,100128.94
2019-03-05T01:06:01.780Z,100138.03
2019-03-05T01:11:03.876Z,100121.67
2019-03-05T01:16:06.154Z,100135.98
2019-03-05T01:21:08.425Z,100137.87
2019-03-05T01:26:11.316Z,100143.53
2019-03-05T01:31:30.839Z,100140.53
2019-03-05T01:36:39.807Z,100146.72
2019-03-05T01:41:41.956Z,100140.08
2019-03-05T01:46:47.712Z,100151.80
2019-03-05T01:51:51.172Z,100150.75
2019-03-05T01:56:53.472Z,100149.20
2019-03-05T02:01:55.555Z,100149.63
2019-03-05T02:06:59.223Z,100156.41
2019-03-05T02:12:01.294Z,100155.14
2019-03-05T02:17:06.181Z,100154.89
2019-03-05T02:22:41.012Z,100164.30
2019-03-05T02:28:20.611Z,100161.77
2019-03-05T02:34:10.841Z,100162.84
2019-03-05T02:39:41.044Z,100160.64
2019-03-05T02:45:21.213Z,100165.86
2019-03-05T02:51:03.643Z,100169.52
2019-03-05T02:56:26.388Z,100176.69
2019-03-05T03:01:47.754Z,100177.13
2019-03-05T03:06:53.151Z,100169.63
2019-03-05T03:11:56.327Z,100169.73
2019-03-05T03:17:10.577Z,100167.23
2019-03-05T03:22:16.641Z,100180.78
2019-03-05T03:27:18.699Z,100174.89
2019-03-05T03:32:21.128Z,100174.54
2019-03-05T03:37:24.410Z,100177.65
2019-03-05T03:42:27.630Z,100183.96
2019-03-05T03:47:33.928Z,100181.89
2019-03-05T03:52:35.977Z,100182.48
2019-03-05T03:57:38.199Z,100188.06
2019-03-05T04:02:43.646Z,100194.65
2019-03-05T04:07:50.261Z,100195.34
2019-03-05T04:12:54.828Z,100190.58
2019-03-05T04:17:56.888Z,100195.59
2019-03-05T04:23:01.704Z,100188.22
2019-03-05T04:28:03.719Z,100205.96
2019-03-05T04:33:05.941Z,100206.23
2019-03-05T04:38:15.338Z,100198.83
2019-03-05T04:43:20.493Z,100199.50
2019-03-05T04:48:24.931Z,100199.78
2019-03-05T04:53:29.720Z,100202.79
2019-03-05T04:58:33.819Z,100207.82
2019-03-05T05:03:36.006Z,100215.08
2019-03-05T05:08:38.023Z,100221.50
2019-03-05T05:13:41.920Z,100218.88
2019-03-05T05:18:44.000Z,100221.66
2019-03-05T05:23:48.434Z,100222.31
2019-03-05T05:28:50.599Z,100227.05
2019-03-05T05:33:54.151Z,100224.56
2019-03-05T05:39:00.131Z,100230.41
2019-03-05T05:44:04.984Z,100235.09
2019-03-05T05:49:08.455Z,100251.05
2019-03-05T05:54:10.620Z,100248.00
2019-03-05T05:59:17.529Z,100242.25
2019-03-05T06:04:19.736Z,100257.80
2019-03-05T06:09:21.774Z,100259.22
2019-03-05T06:14:23.864Z,100264.78
2019-03-05T06:19:30.752Z,100267.66
2019-03-05T06:24:32.963Z,100273.14
2019-03-05T06:29:34.985Z,100276.98
2019-03-05T06:34:41.300Z,100277.44
2019-03-05T06:39:50.462Z,100290.25
2019-03-05T06:44:54.351Z,100294.53
2019-03-05T06:49:56.412Z,100294.57
2019-03-05T06:55:06.042Z,100294.60
2019-03-05T07:00:16.856Z,100307.70
2019-03-05T07:06:00.804Z,100301.87
2019-03-05T07:11:48.254Z,100324.00
2019-03-05T07:17:00.543Z,100327.25
2019-03-05T07:22:30.746Z,100330.78
2019-03-05T07:27:38.144Z,100330.17
2019-03-05T07:32:40.149Z,100344.70
2019-03-05T07:37:42.208Z,100347.05
2019-03-05T07:42:45.917Z,100347.19
2019-03-05T07:47:50.571Z,100367.06
2019-03-05T07:52:53.932Z,100368.75
2019-03-05T07:57:59.558Z,100371.78
2019-03-05T08:03:01.670Z,100381.57
2019-03-05T08:08:40.332Z,100384.56
2019-03-05T08:14:02.544Z,100389.89
2019-03-05T08:19:04.590Z,100394.61
2019-03-05T08:24:06.620Z,100397.88
2019-03-05T08:29:11.487Z,100404.39
2019-03-05T08:34:16.043Z,100408.77
2019-03-05T08:39:20.974Z,100406.45
2019-03-05T08:44:26.015Z,100419.96
2019-03-05T08:49:28.017Z,100435.70
2019-03-05T08:54:35.606Z,100433.93
2019-03-05T08:59:37.643Z,100442.36
2019-03-05T09:04:39.775Z,100454.80
2019-03-05T09:09:41.813Z,100453.42
2019-03-05T09:14:43.884Z,100459.88
2019-03-05T09:19:50.566Z,100468.13
2019-03-05T09:24:52.922Z,100464.22
2019-03-05T09:29:56.381Z,100475.42
2019-03-05T09:34:58.672Z,100482.84
2019-03-05T09:40:00.792Z,100487.19
2019-03-05T09:45:05.148Z,100487.82
2019-03-05T09:50:09.525Z,100489.88
2019-03-05T09:55:14.791Z,100490.00
2019-03-05T10:00:18.575Z,100492.36
2019-03-05T10:05:22.072Z,100485.99
2019-03-05T10:10:29.557Z,100494.20
2019-03-05T10:15:33.030Z,100493.77
2019-03-05T10:20:35.175Z,100508.66
2019-03-05T10:25:37.495Z,100497.53
2019-03-05T10:30:43.212Z,100503.32
2019-03-05T10:35:45.797Z,100498.69
2019-03-05T10:40:52.768Z,100511.37
2019-03-05T10:45:55.009Z,100497.97
2019-03-05T10:51:00.730Z,100517.83
2019-03-05T10:56:03.752Z,100514.59
2019-03-05T11:01:10.303Z,100520.98
2019-03-05T11:06:12.554Z,100547.14
2019-03-05T11:11:14.621Z,100553.25
2019-03-05T11:16:17.609Z,100552.24
2019-03-05T11:21:24.632Z,100558.83
2019-03-05T11:26:30.224Z,100566.33
2019-03-05T11:31:32.261Z,100558.17
2019-03-05T11:36:36.965Z,100560.33
2019-03-05T11:41:39.013Z,100566.31
2019-03-05T11:46:41.373Z,100574.66
2019-03-05T11:51:49.929Z,100577.89
2019-03-05T11:56:52.279Z,100595.95
2019-03-05T12:01:56.186Z,100595.95
2019-03-05T12:06:58.371Z,100599.36
2019-03-05T12:12:01.767Z,100592.34
2019-03-05T12:17:03.791Z,100601.32
2019-03-05T12:22:05.836Z,100608.30
2019-03-05T12:27:13.355Z,100601.50
2019-03-05T12:32:16.335Z,100602.25
2019-03-05T12:37:18.464Z,100601.92
2019-03-05T12:42:20.577Z,100625.28
2019-03-05T12:47:28.350Z,100613.44
2019-03-05T12:52:32.247Z,100626.03
2019-03-05T12:57:34.334Z,100622.38
2019-03-05T13:02:41.239Z,100617.47
2019-03-05T13:07:43.986Z,100616.25
2019-03-05T13:12:49.311Z,100626.32
2019-03-05T13:17:53.434Z,100633.33
2019-03-05T13:22:55.532Z,100631.97
2019-03-05T13:28:01.819Z,100638.53
2019-03-05T13:33:01.836Z,100652.09
2019-03-05T13:38:07.356Z,100639.95
2019-03-05T13:43:07.931Z,100654.63
2019-03-05T13:48:46.602Z,100650.45
2019-03-05T13:54:05.867Z,100659.20
2019-03-05T13:59:36.510Z,100658.34
2019-03-05T14:05:04.198Z,100665.77
2019-03-05T14:10:06.295Z,100674.95
2019-03-05T14:15:08.932Z,100697.78
2019-03-05T14:20:15.153Z,100692.17
2019-03-05T14:25:18.361Z,100699.98
2019-03-05T14:30:21.339Z,100706.59
2019-03-05T14:35:29.048Z,100702.88
2019-03-05T14:40:31.403Z,100701.61
2019-03-05T14:45:37.559Z,100697.80
2019-03-05T14:50:40.362Z,100696.76
2019-03-05T14:55:42.545Z,100704.27
2019-03-05T15:00:52.203Z,100705.37
2019-03-05T15:05:54.518Z,100703.24
2019-03-05T15:10:58.303Z,100709.83
2019-03-05T15:16:02.544Z,100718.43
2019-03-05T15:21:07.099Z,100713.72
2019-03-05T15:26:09.630Z,100710.45
2019-03-05T15:31:14.349Z,100712.98
2019-03-05T15:36:23.771Z,100722.55
2019-03-05T15:41:20.629Z,100729.78
2019-03-05T15:46:28.653Z,100738.61
2019-03-05T15:51:33.164Z,100749.20
2019-03-05T15:56:38.076Z,100750.11
2019-03-05T16:01:40.311Z,100747.66
2019-03-05T16:06:45.823Z,100754.81
2019-03-05T16:11:48.012Z,100757.23
2019-03-05T16:16:51.568Z,100763.13
2019-03-05T16:21:55.295Z,100770.17
2019-03-05T16:26:57.912Z,100765.89
2019-03-05T16:32:17.401Z,100777.52
2019-03-05T16:37:39.258Z,100775.84
2019-03-05T16:43:01.166Z,100773.45
2019-03-05T16:48:29.355Z,100777.83
2019-03-05T16:53:48.580Z,100785.66
2019-03-05T16:59:10.843Z,100788.65
2019-03-05T17:04:23.708Z,100796.37
2019-03-05T17:09:48.625Z,100804.34
2019-03-05T17:14:50.747Z,100810.50
2019-03-05T17:19:55.247Z,100816.03
2019-03-05T17:24:57.584Z,100827.13
2019-03-05T17:30:01.355Z,100835.66
2019-03-05T17:35:05.332Z,100842.15
2019-03-05T17:40:08.778Z,100850.93
2019-03-05T17:45:15.244Z,100848.04
2019-03-05T17:50:18.569Z,100845.47
2019-03-05T17:55:24.088Z,100851.64
2019-03-05T18:00:29.774Z,100855.21
2019-03-05T18:05:32.056Z,100861.48
2019-03-05T18:10:34.179Z,100858.75
2019-03-05T18:15:40.368Z,100870.45
2019-03-05T18:20:42.485Z,100863.13
2019-03-05T18:25:44.608Z,100875.55
2019-03-05T18:30:52.383Z,100865.46
2019-03-05T18:35:54.691Z,100863.27
2019-03-05T18:40:58.033Z,100872.45
2019-03-05T18:46:00.273Z,100875.88
2019-03-05T18:51:06.406Z,100871.34
2019-03-05T18:56:10.324Z,100874.22
2019-03-05T19:01:14.879Z,100873.27
2019-03-05T19:06:23.845Z,100868.37
2019-03-05T19:11:25.956Z,100875.62
2019-03-05T19:16:31.072Z,100870.58
2019-03-05T19:21:35.048Z,100873.16
2019-03-05T19:26:37.263Z,100868.52
2019-03-05T19:31:39.345Z,100873.81
2019-03-05T19:36:44.309Z,100873.63
2019-03-05T19:41:55.615Z,100874.64
2019-03-05T19:46:50.799Z,100879.12
2019-03-05T19:51:52.906Z,100874.64
2019-03-05T19:56:54.972Z,100877.68
2019-03-05T20:02:03.392Z,100876.06
2019-03-05T20:07:09.493Z,100876.86
2019-03-05T20:12:11.576Z,100871.63
2019-03-05T20:17:13.601Z,100878.09
2019-03-05T20:22:17.584Z,100878.31
2019-03-05T20:27:25.216Z,100879.97
2019-03-05T20:32:33.259Z,100875.35
2019-03-05T20:37:41.309Z,100872.59
2019-03-05T20:42:47.869Z,100867.73
2019-03-05T20:47:49.887Z,100870.41
2019-03-05T20:52:52.520Z,100869.55
2019-03-05T20:57:54.603Z,100873.75
2019-03-05T21:03:02.070Z,100872.23
2019-03-05T21:08:05.585Z,100876.88
2019-03-05T21:13:07.881Z,100878.46
2019-03-05T21:18:13.094Z,100871.31
2019-03-05T21:23:15.360Z,100872.41
2019-03-05T21:28:17.374Z,100867.02
2019-03-05T21:33:19.583Z,100856.41
2019-03-05T21:38:21.935Z,100863.72
2019-03-05T21:43:24.183Z,100856.61
2019-03-05T21:48:26.221Z,100862.16
2019-03-05T21:53:28.330Z,100862.67
2019-03-05T21:58:31.440Z,100857.03
2019-03-05T22:03:33.685Z,100862.95
2019-03-05T22:08:36.017Z,100862.58
2019-03-05T22:13:40.740Z,100856.45
2019-03-05T22:18:44.170Z,100866.12
2019-03-05T22:23:49.251Z,100857.27
2019-03-05T22:28:51.805Z,100855.94
2019-03-05T22:33:55.885Z,100850.80
2019-03-05T22:39:00.779Z,100850.91
2019-03-05T22:44:05.507Z,100851.28
2019-03-05T22:49:07.594Z,100844.94
2019-03-05T22:54:09.748Z,100837.67
2019-03-05T22:59:14.037Z,100830.79
2019-03-05T23:04:21.548Z,100836.67
2019-03-05T23:09:24.755Z,100830.47
2019-03-05T23:14:26.920Z,100825.94
2019-03-05T23:19:31.990Z,100822.81
2019-03-05T23:24:37.083Z,100822.17
2019-03-05T23:29:50.476Z,100807.64
2019-03-05T23:34:58.478Z,100802.91
2019-03-05T23:40:00.730Z,100802.34
2019-03-05T23:45:05.805Z,100795.33
2019-03-05T23:50:08.046Z,100790.65
2019-03-05T23:55:11.226Z,100790.06
